sensor_id;sensor_type;location;lat;lon;timestamp;pressure;altitude;pressure_sealevel;temperature;humidity
64243;BME280;50573;51.512;5.386;2023-02-19T00:07:54;101564.09;;;11.15;100.00
64243;BME280;50573;51.512;5.386;2023-02-19T00:17:58;101578.09;;;11.17;100.00
64243;BME280;50573;51.512;5.386;2023-02-19T00:28:01;101567.59;;;11.16;100.00
64243;BME280;50573;51.512;5.386;2023-02-19T00:38:05;101573.41;;;11.18;100.00
64243;BME280;50573;51.512;5.386;2023-02-19T00:48:08;101575.34;;;11.17;100.00
64243;BME280;50573;51.512;5.386;2023-02-19T00:58:12;101574.72;;;11.10;100.00
64243;BME280;50573;51.512;5.386;2023-02-19T01:08:15;101593.16;;;11.02;100.00
64243;BME280;50573;51.512;5.386;2023-02-19T01:18:19;101600.16;;;11.03;100.00
64243;BME280;50573;51.512;5.386;2023-02-19T01:28:22;101609.16;;;11.00;100.00
64243;BME280;50573;51.512;5.386;2023-02-19T01:38:26;101614.69;;;10.97;100.00
64243;BME280;50573;51.512;5.386;2023-02-19T01:48:30;101625.56;;;10.97;100.00
64243;BME280;50573;51.512;5.386;2023-02-19T01:58:35;101623.38;;;10.88;100.00
64243;BME280;50573;51.512;5.386;2023-02-19T02:08:38;101605.91;;;10.86;100.00
64243;BME280;50573;51.512;5.386;2023-02-19T02:19:03;101614.38;;;10.91;99.35
64243;BME280;50573;51.512;5.386;2023-02-19T02:29:17;101620.28;;;10.86;99.89
64243;BME280;50573;51.512;5.386;2023-02-19T02:39:25;101619.59;;;10.82;99.45
64243;BME280;50573;51.512;5.386;2023-02-19T02:49:29;101628.66;;;10.76;99.46
64243;BME280;50573;51.512;5.386;2023-02-19T02:59:35;101634.16;;;10.72;100.00
64243;BME280;50573;51.512;5.386;2023-02-19T03:09:40;101637.28;;;10.44;100.00
64243;BME280;50573;51.512;5.386;2023-02-19T03:19:46;101655.91;;;10.19;100.00
64243;BME280;50573;51.512;5.386;2023-02-19T03:29:52;101650.97;;;10.07;100.00
64243;BME280;50573;51.512;5.386;2023-02-19T03:39:59;101657.19;;;10.11;100.00
64243;BME280;50573;51.512;5.386;2023-02-19T03:50:04;101667.66;;;10.13;100.00
64243;BME280;50573;51.512;5.386;2023-02-19T04:00:12;101678.59;;;10.09;100.00
64243;BME280;50573;51.512;5.386;2023-02-19T04:10:17;101698.97;;;9.91;100.00
64243;BME280;50573;51.512;5.386;2023-02-19T04:20:26;101700.56;;;9.88;100.00
64243;BME280;50573;51.512;5.386;2023-02-19T04:30:31;101716.16;;;9.84;100.00
64243;BME280;50573;51.512;5.386;2023-02-19T04:40:35;101729.31;;;9.89;100.00
64243;BME280;50573;51.512;5.386;2023-02-19T04:50:38;101745.78;;;9.75;100.00
64243;BME280;50573;51.512;5.386;2023-02-19T05:00:42;101759.13;;;9.62;100.00
64243;BME280;50573;51.512;5.386;2023-02-19T05:10:45;101784.03;;;9.61;100.00
64243;BME280;50573;51.512;5.386;2023-02-19T05:20:50;101788.31;;;9.55;100.00
64243;BME280;50573;51.512;5.386;2023-02-19T05:30:53;101785.28;;;9.49;100.00
64243;BME280;50573;51.512;5.386;2023-02-19T05:40:58;101797.75;;;9.43;100.00
64243;BME280;50573;51.512;5.386;2023-02-19T05:51:08;101812.88;;;9.48;100.00
64243;BME280;50573;51.512;5.386;2023-02-19T06:01:14;101819.50;;;9.43;100.00
64243;BME280;50573;51.512;5.386;2023-02-19T06:11:18;101799.41;;;9.30;100.00
64243;BME280;50573;51.512;5.386;2023-02-19T06:21:22;101816.94;;;9.22;100.00
64243;BME280;50573;51.512;5.386;2023-02-19T06:31:25;101824.69;;;9.24;100.00
64243;BME280;50573;51.512;5.386;2023-02-19T06:41:29;101851.91;;;9.20;100.00
64243;BME280;50573;51.512;5.386;2023-02-19T06:51:33;101861.16;;;9.30;100.00
64243;BME280;50573;51.512;5.386;2023-02-19T07:01:37;101871.59;;;9.38;100.00
64243;BME280;50573;51.512;5.386;2023-02-19T07:11:40;101884.31;;;9.52;100.00
64243;BME280;50573;51.512;5.386;2023-02-19T07:21:44;101902.59;;;9.51;100.00
64243;BME280;50573;51.512;5.386;2023-02-19T07:31:47;101930.25;;;9.36;100.00
64243;BME280;50573;51.512;5.386;2023-02-19T07:41:52;101941.91;;;9.40;100.00
64243;BME280;50573;51.512;5.386;2023-02-19T07:52:00;101962.09;;;9.35;100.00
64243;BME280;50573;51.512;5.386;2023-02-19T08:02:07;101991.25;;;9.35;100.00
64243;BME280;50573;51.512;5.386;2023-02-19T08:12:29;101997.09;;;9.37;100.00
64243;BME280;50573;51.512;5.386;2023-02-19T08:22:51;102009.84;;;9.50;100.00
64243;BME280;50573;51.512;5.386;2023-02-19T08:32:54;102025.75;;;9.52;100.00
64243;BME280;50573;51.512;5.386;2023-02-19T08:43:02;102023.00;;;9.66;100.00
64243;BME280;50573;51.512;5.386;2023-02-19T08:53:05;102038.84;;;9.85;100.00
64243;BME280;50573;51.512;5.386;2023-02-19T09:03:09;102044.56;;;10.05;100.00
64243;BME280;50573;51.512;5.386;2023-02-19T09:13:12;102062.31;;;10.34;100.00
64243;BME280;50573;51.512;5.386;2023-02-19T09:23:17;102056.13;;;10.26;100.00
64243;BME280;50573;51.512;5.386;2023-02-19T09:33:19;102061.75;;;10.56;100.00
64243;BME280;50573;51.512;5.386;2023-02-19T09:43:24;102082.97;;;10.79;100.00
64243;BME280;50573;51.512;5.386;2023-02-19T09:53:32;102089.88;;;10.94;100.00
64243;BME280;50573;51.512;5.386;2023-02-19T10:03:42;102129.69;;;10.84;100.00
64243;BME280;50573;51.512;5.386;2023-02-19T10:13:48;102150.97;;;10.96;99.74
64243;BME280;50573;51.512;5.386;2023-02-19T10:23:54;102155.31;;;10.90;97.90
64243;BME280;50573;51.512;5.386;2023-02-19T10:33:59;102166.63;;;10.89;97.20
64243;BME280;50573;51.512;5.386;2023-02-19T10:44:05;102198.19;;;10.86;98.09
64243;BME280;50573;51.512;5.386;2023-02-19T10:54:14;102201.28;;;10.88;98.88
64243;BME280;50573;51.512;5.386;2023-02-19T11:04:19;102205.78;;;11.12;97.92
64243;BME280;50573;51.512;5.386;2023-02-19T11:14:22;102211.19;;;11.19;94.89
64243;BME280;50573;51.512;5.386;2023-02-19T11:24:31;102206.81;;;11.33;96.87
64243;BME280;50573;51.512;5.386;2023-02-19T11:34:36;102195.88;;;11.33;94.35
64243;BME280;50573;51.512;5.386;2023-02-19T11:44:46;102193.28;;;11.59;89.91
64243;BME280;50573;51.512;5.386;2023-02-19T11:54:53;102195.28;;;11.96;87.67
64243;BME280;50573;51.512;5.386;2023-02-19T12:05:06;102194.00;;;12.04;86.08
64243;BME280;50573;51.512;5.386;2023-02-19T12:15:24;102188.47;;;12.11;83.92
64243;BME280;50573;51.512;5.386;2023-02-19T12:25:32;102190.19;;;11.98;82.00
64243;BME280;50573;51.512;5.386;2023-02-19T12:35:41;102196.31;;;12.09;83.10
64243;BME280;50573;51.512;5.386;2023-02-19T12:45:48;102198.38;;;11.98;81.56
64243;BME280;50573;51.512;5.386;2023-02-19T12:55:53;102191.59;;;11.76;84.28
64243;BME280;50573;51.512;5.386;2023-02-19T13:06:00;102210.72;;;11.72;83.34
64243;BME280;50573;51.512;5.386;2023-02-19T13:16:05;102228.19;;;11.38;84.38
64243;BME280;50573;51.512;5.386;2023-02-19T13:36:32;102248.84;;;11.39;82.85
64243;BME280;50573;51.512;5.386;2023-02-19T13:46:37;102278.72;;;10.98;84.56
64243;BME280;50573;51.512;5.386;2023-02-19T13:56:43;102283.56;;;10.73;85.19
64243;BME280;50573;51.512;5.386;2023-02-19T14:17:22;102309.03;;;9.96;90.84
64243;BME280;50573;51.512;5.386;2023-02-19T14:27:26;102316.06;;;9.87;93.60
64243;BME280;50573;51.512;5.386;2023-02-19T14:37:30;102313.69;;;9.92;93.45
64243;BME280;50573;51.512;5.386;2023-02-19T14:47:33;102310.59;;;9.76;95.87
64243;BME280;50573;51.512;5.386;2023-02-19T14:57:40;102298.97;;;9.54;96.94
64243;BME280;50573;51.512;5.386;2023-02-19T15:07:46;102287.28;;;9.57;95.42
64243;BME280;50573;51.512;5.386;2023-02-19T15:17:51;102262.78;;;9.68;94.11
64243;BME280;50573;51.512;5.386;2023-02-19T15:27:54;102259.69;;;9.59;93.06
64243;BME280;50573;51.512;5.386;2023-02-19T15:37:58;102272.91;;;9.53;92.94
64243;BME280;50573;51.512;5.386;2023-02-19T15:48:03;102306.72;;;9.49;91.56
64243;BME280;50573;51.512;5.386;2023-02-19T15:58:12;102323.41;;;9.30;93.39
64243;BME280;50573;51.512;5.386;2023-02-19T16:08:17;102329.19;;;9.11;95.11
64243;BME280;50573;51.512;5.386;2023-02-19T16:18:23;102332.59;;;8.87;99.46
64243;BME280;50573;51.512;5.386;2023-02-19T16:28:26;102346.09;;;8.66;100.00
64243;BME280;50573;51.512;5.386;2023-02-19T16:38:32;102369.69;;;8.48;100.00
64243;BME280;50573;51.512;5.386;2023-02-19T16:48:34;102389.00;;;8.35;100.00
64243;BME280;50573;51.512;5.386;2023-02-19T16:58:39;102401.03;;;8.34;100.00
64243;BME280;50573;51.512;5.386;2023-02-19T17:08:42;102389.31;;;8.27;100.00
64243;BME280;50573;51.512;5.386;2023-02-19T17:18:47;102405.22;;;8.28;98.92
64243;BME280;50573;51.512;5.386;2023-02-19T17:28:50;102410.28;;;8.26;97.49
64243;BME280;50573;51.512;5.386;2023-02-19T17:38:55;102418.41;;;8.26;96.99
64243;BME280;50573;51.512;5.386;2023-02-19T17:48:58;102409.88;;;8.24;97.21
64243;BME280;50573;51.512;5.386;2023-02-19T17:59:02;102420.28;;;8.22;97.70
64243;BME280;50573;51.512;5.386;2023-02-19T18:09:05;102424.81;;;8.08;97.29
64243;BME280;50573;51.512;5.386;2023-02-19T18:19:09;102430.22;;;8.04;97.30
64243;BME280;50573;51.512;5.386;2023-02-19T18:29:13;102451.28;;;7.78;96.38
64243;BME280;50573;51.512;5.386;2023-02-19T18:39:17;102443.66;;;7.50;96.38
64243;BME280;50573;51.512;5.386;2023-02-19T18:49:20;102437.94;;;7.26;97.75
64243;BME280;50573;51.512;5.386;2023-02-19T18:59:26;102428.06;;;7.11;97.98
64243;BME280;50573;51.512;5.386;2023-02-19T19:09:29;102452.22;;;6.93;99.57
64243;BME280;50573;51.512;5.386;2023-02-19T19:19:34;102446.94;;;6.74;100.00
64243;BME280;50573;51.512;5.386;2023-02-19T19:29:37;102443.28;;;6.63;100.00
64243;BME280;50573;51.512;5.386;2023-02-19T19:39:42;102442.81;;;6.57;99.90
64243;BME280;50573;51.512;5.386;2023-02-19T19:49:45;102463.53;;;6.46;100.00
64243;BME280;50573;51.512;5.386;2023-02-19T19:59:50;102457.22;;;6.39;100.00
64243;BME280;50573;51.512;5.386;2023-02-19T20:09:53;102471.69;;;6.24;100.00
64243;BME280;50573;51.512;5.386;2023-02-19T20:19:57;102463.00;;;6.15;100.00
64243;BME280;50573;51.512;5.386;2023-02-19T20:30:00;102463.50;;;5.98;100.00
64243;BME280;50573;51.512;5.386;2023-02-19T20:40:05;102467.94;;;5.87;100.00
64243;BME280;50573;51.512;5.386;2023-02-19T20:50:08;102454.53;;;5.75;100.00
64243;BME280;50573;51.512;5.386;2023-02-19T21:00:13;102442.19;;;5.54;100.00
64243;BME280;50573;51.512;5.386;2023-02-19T21:10:17;102431.97;;;5.44;100.00
64243;BME280;50573;51.512;5.386;2023-02-19T21:20:22;102442.19;;;5.35;100.00
64243;BME280;50573;51.512;5.386;2023-02-19T21:30:24;102446.63;;;5.24;100.00
64243;BME280;50573;51.512;5.386;2023-02-19T21:40:29;102429.97;;;5.22;100.00
64243;BME280;50573;51.512;5.386;2023-02-19T21:50:33;102396.28;;;5.16;100.00
64243;BME280;50573;51.512;5.386;2023-02-19T22:00:37;102404.47;;;5.20;100.00
64243;BME280;50573;51.512;5.386;2023-02-19T22:10:40;102416.19;;;5.27;100.00
64243;BME280;50573;51.512;5.386;2023-02-19T22:20:44;102429.53;;;5.20;100.00
64243;BME280;50573;51.512;5.386;2023-02-19T22:30:47;102412.50;;;5.16;100.00
64243;BME280;50573;51.512;5.386;2023-02-19T22:40:52;102418.63;;;5.13;100.00
64243;BME280;50573;51.512;5.386;2023-02-19T22:50:54;102407.72;;;5.10;100.00
64243;BME280;50573;51.512;5.386;2023-02-19T23:00:59;102399.19;;;5.08;100.00
64243;BME280;50573;51.512;5.386;2023-02-19T23:11:02;102395.31;;;5.05;100.00
64243;BME280;50573;51.512;5.386;2023-02-19T23:21:06;102395.31;;;5.05;100.00
64243;BME280;50573;51.512;5.386;2023-02-19T23:31:09;102369.63;;;5.15;100.00
64243;BME280;50573;51.512;5.386;2023-02-19T23:41:15;102356.59;;;5.39;100.00
64243;BME280;50573;51.512;5.386;2023-02-19T23:51:18;102340.75;;;5.60;100.00
